createdAt,value
2024-02-15T00:00:44.982Z,87.18
2024-02-15T00:01:45.617Z,86.8
2024-02-15T00:03:18.128Z,86.7
2024-02-15T00:03:47.392Z,86.99
2024-02-15T00:04:48.011Z,86.42
2024-02-15T00:05:49.386Z,86.42
2024-02-15T00:06:49.997Z,86.99
2024-02-15T00:07:50.535Z,86.51
2024-02-15T00:08:51.417Z,86.9
2024-02-15T00:09:51.278Z,86.42
2024-02-15T00:10:52.180Z,86.51
2024-02-15T00:11:53.078Z,86.7
2024-02-15T00:12:53.344Z,86.99
2024-02-15T00:13:54.273Z,87.32
2024-02-15T00:14:55.213Z,87.23
2024-02-15T00:15:55.752Z,87.32
2024-02-15T00:16:56.276Z,87.8
2024-02-15T00:17:57.340Z,87.61
2024-02-15T00:18:58.151Z,87.52
2024-02-15T00:19:58.916Z,87.65
2024-02-15T00:20:59.977Z,87.37
2024-02-15T00:22:00.151Z,87.61
2024-02-15T00:23:00.446Z,87.52
2024-02-15T00:24:01.566Z,87.94
2024-02-15T00:25:01.933Z,87.13
2024-02-15T00:26:03.050Z,87.23
2024-02-15T00:27:03.469Z,87.94
2024-02-15T00:28:03.642Z,87.61
2024-02-15T00:29:03.553Z,87.9
2024-02-15T00:30:04.705Z,87.8
2024-02-15T00:31:04.828Z,88.04
2024-02-15T00:32:05.775Z,87.75
2024-02-15T00:33:06.789Z,86.99
2024-02-15T00:34:07.440Z,86.9
2024-02-15T00:35:07.789Z,86.57
2024-02-15T00:36:07.728Z,86.7
2024-02-15T00:37:08.214Z,86.42
2024-02-15T00:38:08.494Z,86.61
2024-02-15T00:39:08.989Z,86.57
2024-02-15T00:40:09.701Z,86.51
2024-02-15T00:41:10.500Z,86.57
2024-02-15T00:42:11.631Z,86.47
2024-02-15T00:43:11.892Z,85.99
2024-02-15T00:44:12.248Z,85.9
2024-02-15T00:45:13.202Z,86.57
2024-02-15T00:46:13.500Z,86.28
2024-02-15T00:47:13.736Z,86.66
2024-02-15T00:48:14.545Z,86.47
2024-02-15T00:49:15.258Z,86.38
2024-02-15T00:50:15.398Z,86.47
2024-02-15T00:51:15.917Z,85.99
2024-02-15T00:52:16.046Z,86.38
2024-02-15T00:53:16.135Z,86.28
2024-02-15T00:54:16.992Z,86.57
2024-02-15T00:55:17.384Z,86.47
2024-02-15T00:56:17.653Z,86.47
2024-02-15T00:57:18.821Z,86.66
2024-02-15T00:58:19.481Z,86.47
2024-02-15T00:59:19.911Z,86.38
2024-02-15T01:00:20.744Z,86.47
2024-02-15T01:01:21.673Z,87.13
2024-02-15T01:02:22.230Z,86.76
2024-02-15T01:03:23.475Z,86.85
2024-02-15T01:04:24.179Z,87.13
2024-02-15T01:05:24.602Z,87.23
2024-02-15T01:06:25.140Z,87.52
2024-02-15T01:07:25.650Z,87.42
2024-02-15T01:08:25.955Z,87.32
2024-02-15T01:09:26.854Z,87.42
2024-02-15T01:10:27.978Z,87.42
2024-02-15T01:11:28.870Z,87.71
2024-02-15T01:12:29.126Z,87.61
2024-02-15T01:13:30.188Z,88.09
2024-02-15T01:14:31.071Z,87.9
2024-02-15T01:15:31.853Z,87.99
2024-02-15T01:16:32.507Z,88.18
2024-02-15T01:17:33.799Z,88.37
2024-02-15T01:18:34.660Z,88.46
2024-02-15T01:19:35.404Z,88.37
2024-02-15T01:20:35.512Z,88.37
2024-02-15T01:21:35.900Z,88.66
2024-02-15T01:22:36.099Z,88.66
2024-02-15T01:23:37.019Z,89.23
2024-02-15T01:24:37.389Z,89.14
2024-02-15T01:25:37.975Z,89.04
2024-02-15T01:26:38.919Z,89.14
2024-02-15T01:27:39.436Z,88.66
2024-02-15T01:28:39.373Z,88.37
2024-02-15T01:29:40.376Z,87.99
2024-02-15T01:30:40.340Z,88.18
2024-02-15T01:31:41.411Z,88.09
2024-02-15T01:32:42.188Z,88.18
2024-02-15T01:33:42.986Z,88.18
2024-02-15T01:34:43.851Z,87.52
2024-02-15T01:35:44.115Z,87.9
2024-02-15T01:36:44.891Z,87.9
2024-02-15T01:37:44.966Z,87.99
2024-02-15T01:38:45.308Z,88.09
2024-02-15T01:39:45.297Z,87.71
2024-02-15T01:40:46.139Z,87.9
2024-02-15T01:41:47.266Z,88.18
2024-02-15T01:42:47.078Z,87.42
2024-02-15T01:43:48.130Z,87.71
2024-02-15T01:44:48.805Z,87.61
2024-02-15T01:45:49.033Z,87.23
2024-02-15T01:46:49.843Z,87.04
2024-02-15T01:47:50.875Z,87.23
2024-02-15T01:48:51.699Z,86.85
2024-02-15T01:49:52.441Z,86.85
2024-02-15T01:50:52.539Z,86.66
2024-02-15T01:51:52.767Z,86.42
2024-02-15T01:52:52.869Z,86.09
2024-02-15T01:53:53.253Z,86.18
2024-02-15T01:54:54.202Z,86.18
2024-02-15T01:55:54.717Z,86.28
2024-02-15T01:56:55.647Z,85.8
2024-02-15T01:57:55.889Z,86.28
2024-02-15T01:58:55.930Z,85.9
2024-02-15T01:59:56.578Z,85.56
2024-02-15T02:00:56.985Z,85.9
2024-02-15T02:01:57.406Z,85.99
2024-02-15T02:02:58.557Z,85.99
2024-02-15T02:03:59.318Z,85.9
2024-02-15T02:05:00.070Z,85.99
2024-02-15T02:06:00.750Z,85.99
2024-02-15T02:07:01.233Z,86.42
2024-02-15T02:08:01.043Z,85.18
2024-02-15T02:09:01.965Z,85.08
2024-02-15T02:10:02.325Z,85.94
2024-02-15T02:11:03.256Z,85.85
2024-02-15T02:12:04.296Z,86.13
2024-02-15T02:13:04.531Z,86.22
2024-02-15T02:14:04.796Z,86.13
2024-02-15T02:15:05.802Z,86.51
2024-02-15T02:16:06.693Z,86.28
2024-02-15T02:17:06.745Z,86.47
2024-02-15T02:18:08.004Z,86.57
2024-02-15T02:19:08.993Z,86.57
2024-02-15T02:20:09.826Z,86.76
2024-02-15T02:21:09.720Z,86.57
2024-02-15T02:22:10.395Z,86.76
2024-02-15T02:23:11.040Z,87.13
2024-02-15T02:24:12.280Z,87.13
2024-02-15T02:25:12.152Z,87.04
2024-02-15T02:26:13.129Z,86.76
2024-02-15T02:27:14.120Z,86.94
2024-02-15T02:28:14.437Z,86.76
2024-02-15T02:29:15.344Z,87.04
2024-02-15T02:30:16.108Z,86.85
2024-02-15T02:31:16.732Z,86.47
2024-02-15T02:32:17.805Z,86.94
2024-02-15T02:33:18.754Z,86.66
2024-02-15T02:34:18.707Z,87.32
2024-02-15T02:35:19.587Z,87.04
2024-02-15T02:36:20.114Z,86.57
2024-02-15T02:37:20.969Z,86.57
2024-02-15T02:38:21.058Z,86.38
2024-02-15T02:39:21.539Z,87.04
2024-02-15T02:40:21.985Z,86.94
2024-02-15T02:41:22.644Z,87.04
2024-02-15T02:42:23.494Z,86.66
2024-02-15T02:43:24.357Z,86.57
2024-02-15T02:44:24.966Z,86.66
2024-02-15T02:45:25.208Z,87.32
2024-02-15T02:46:26.026Z,86.85
2024-02-15T02:47:26.700Z,86.66
2024-02-15T02:48:27.795Z,86.57
2024-02-15T02:49:28.082Z,87.32
2024-02-15T02:50:29.427Z,86.94
2024-02-15T02:51:29.276Z,87.32
2024-02-15T02:52:30.489Z,87.04
2024-02-15T02:53:30.760Z,86.85
2024-02-15T02:54:31.226Z,86.76
2024-02-15T02:55:31.261Z,86.47
2024-02-15T02:56:31.839Z,87.13
2024-02-15T02:57:32.328Z,86.94
2024-02-15T02:58:33.398Z,87.04
2024-02-15T02:59:34.294Z,86.76
2024-02-15T03:00:35.097Z,87.13
2024-02-15T03:01:35.783Z,86.94
2024-02-15T03:02:36.847Z,86.66
2024-02-15T03:03:37.871Z,86.94
2024-02-15T03:04:38.183Z,87.04
2024-02-15T03:05:38.445Z,87.32
2024-02-15T03:06:38.782Z,87.42
2024-02-15T03:07:39.434Z,87.23
2024-02-15T03:08:39.946Z,87.23
2024-02-15T03:09:40.098Z,86.94
2024-02-15T03:10:41.114Z,87.61
2024-02-15T03:11:41.794Z,87.71
2024-02-15T03:12:41.971Z,88.09
2024-02-15T03:13:43.068Z,87.9
2024-02-15T03:14:43.726Z,87.71
2024-02-15T03:15:43.845Z,87.99
2024-02-15T03:16:44.449Z,87.9
2024-02-15T03:17:45.839Z,87.71
2024-02-15T03:18:46.397Z,87.71
2024-02-15T03:19:46.607Z,87.71
2024-02-15T03:20:47.105Z,87.8
2024-02-15T03:21:47.754Z,87.61
2024-02-15T03:22:48.169Z,87.42
2024-02-15T03:23:48.521Z,87.13
2024-02-15T03:24:49.022Z,87.13
2024-02-15T03:25:49.870Z,87.71
2024-02-15T03:26:50.756Z,87.61
2024-02-15T03:27:50.889Z,87.13
2024-02-15T03:28:51.187Z,86.94
2024-02-15T03:29:52.012Z,86.66
2024-02-15T03:30:52.899Z,87.13
2024-02-15T03:31:53.511Z,86.66
2024-02-15T03:32:54.760Z,87.13
2024-02-15T03:33:55.317Z,87.04
2024-02-15T03:34:55.760Z,86.85
2024-02-15T03:35:56.879Z,86.76
2024-02-15T03:36:57.522Z,87.04
2024-02-15T03:37:58.487Z,86.94
2024-02-15T03:38:58.590Z,87.04
2024-02-15T03:39:58.969Z,87.32
2024-02-15T03:40:59.618Z,87.09
2024-02-15T03:42:00.696Z,87.42
2024-02-15T03:43:00.843Z,87.61
2024-02-15T03:44:01.459Z,87.32
2024-02-15T03:45:02.413Z,87.42
2024-02-15T03:46:02.713Z,87.42
2024-02-15T03:47:05.220Z,87.8
2024-02-15T03:48:04.272Z,87.8
2024-02-15T03:49:04.610Z,87.61
2024-02-15T03:50:04.591Z,87.19
2024-02-15T03:51:05.336Z,87.19
2024-02-15T03:52:05.675Z,87.19
2024-02-15T03:53:08.724Z,87.19
2024-02-15T03:54:06.899Z,87.19
2024-02-15T03:55:07.075Z,87.85
2024-02-15T03:56:08.133Z,87.57
2024-02-15T03:57:09.189Z,87.85
2024-02-15T03:58:09.312Z,87.28
2024-02-15T03:59:10.337Z,87.66
2024-02-15T04:00:11.252Z,87.95
2024-02-15T04:01:11.583Z,87.85
2024-02-15T04:02:11.796Z,87.85
2024-02-15T04:03:11.969Z,88.23
2024-02-15T04:04:12.325Z,88.23
2024-02-15T04:05:12.620Z,88.8
2024-02-15T04:06:13.876Z,88.52
2024-02-15T04:07:14.517Z,88.9
2024-02-15T04:08:14.992Z,89.47
2024-02-15T04:09:15.223Z,89.75
2024-02-15T04:10:15.924Z,89.66
2024-02-15T04:11:16.164Z,89.75
2024-02-15T04:12:16.678Z,89.66
2024-02-15T04:13:17.772Z,89.75
2024-02-15T04:14:18.618Z,89.61
2024-02-15T04:15:20.222Z,89.66
2024-02-15T04:16:20.436Z,89.71
2024-02-15T04:17:20.927Z,89.9
2024-02-15T04:18:21.213Z,89.9
2024-02-15T04:19:21.337Z,90.28
2024-02-15T04:20:22.053Z,90
2024-02-15T04:21:22.231Z,90.37
2024-02-15T04:22:23.188Z,90.37
2024-02-15T04:23:24.013Z,90.14
2024-02-15T04:24:24.288Z,90.37
2024-02-15T04:25:24.555Z,90.52
2024-02-15T04:26:25.441Z,90.66
2024-02-15T04:27:25.972Z,90.47
2024-02-15T04:28:26.992Z,90.37
2024-02-15T04:29:27.971Z,90.66
2024-02-15T04:30:28.774Z,90.85
2024-02-15T04:31:29.726Z,90.47
2024-02-15T04:32:29.666Z,90.56
2024-02-15T04:33:30.598Z,91.13
2024-02-15T04:34:31.533Z,91.42
2024-02-15T04:35:31.479Z,90.94
2024-02-15T04:36:32.521Z,91.13
2024-02-15T04:37:32.728Z,90.85
2024-02-15T04:38:33.557Z,91.52
2024-02-15T04:39:33.864Z,91.42
2024-02-15T04:40:34.051Z,91.52
2024-02-15T04:41:34.836Z,91.61
2024-02-15T04:42:35.601Z,91.89
2024-02-15T04:43:35.790Z,91.89
2024-02-15T04:44:36.401Z,91.99
2024-02-15T04:45:37.269Z,91.99
2024-02-15T04:46:38.175Z,92.56
2024-02-15T04:47:38.952Z,92.56
2024-02-15T04:48:39.360Z,92.46
2024-02-15T04:49:39.603Z,93.13
2024-02-15T04:50:40.272Z,92.94
2024-02-15T04:51:41.100Z,93.04
2024-02-15T04:52:41.814Z,92.75
2024-02-15T04:53:42.406Z,92.94
2024-02-15T04:54:42.499Z,92.85
2024-02-15T04:55:43.287Z,92.66
2024-02-15T04:56:44.293Z,93.13
2024-02-15T04:57:44.627Z,93.13
2024-02-15T04:58:45.469Z,92.94
2024-02-15T04:59:46.201Z,93.6
2024-02-15T05:00:46.438Z,93.51
2024-02-15T05:01:47.197Z,93.32
2024-02-15T05:02:48.474Z,93.23
2024-02-15T05:03:48.655Z,93.6
2024-02-15T05:04:49.409Z,93.13
2024-02-15T05:05:50.291Z,93.23
2024-02-15T05:06:50.688Z,93.04
2024-02-15T05:07:50.769Z,93.7
2024-02-15T05:08:51.495Z,93.6
2024-02-15T05:09:51.514Z,92.85
2024-02-15T05:10:52.501Z,93.13
2024-02-15T05:11:53.312Z,93.23
2024-02-15T05:12:54.004Z,93.37
2024-02-15T05:13:54.928Z,93.32
2024-02-15T05:14:55.892Z,93.32
2024-02-15T05:15:56.636Z,93.99
2024-02-15T05:16:57.377Z,93.56
2024-02-15T05:17:58.609Z,93.89
2024-02-15T05:18:58.993Z,93.7
2024-02-15T05:19:59.773Z,93.56
2024-02-15T05:21:00.075Z,93.75
2024-02-15T05:22:01.048Z,93.75
2024-02-15T05:23:01.765Z,93.75
2024-02-15T05:24:02.613Z,93.75
2024-02-15T05:25:03.395Z,93.84
2024-02-15T05:26:04.376Z,93.65
2024-02-15T05:27:05.160Z,94.23
2024-02-15T05:28:06.094Z,94.03
2024-02-15T05:29:06.200Z,94.51
2024-02-15T05:30:06.827Z,94.51
2024-02-15T05:31:07.015Z,94.51
2024-02-15T05:32:07.571Z,94.03
2024-02-15T05:33:08.504Z,94.89
2024-02-15T05:34:09.247Z,94.7
2024-02-15T05:35:09.438Z,94.6
2024-02-15T05:36:09.368Z,95.55
2024-02-15T05:37:10.267Z,95.17
2024-02-15T05:38:11.483Z,95.27
2024-02-15T05:39:12.391Z,95.36
2024-02-15T05:40:12.749Z,95.17
2024-02-15T05:41:12.955Z,95.55
2024-02-15T05:42:13.641Z,95.55
2024-02-15T05:43:14.715Z,95.17
2024-02-15T05:44:15.793Z,95.08
2024-02-15T05:45:16.572Z,94.89
2024-02-15T05:46:16.505Z,94.98
2024-02-15T05:47:17.423Z,95.55
2024-02-15T05:48:18.405Z,95.17
2024-02-15T05:49:18.573Z,95.36
2024-02-15T05:50:18.518Z,94.89
2024-02-15T05:51:19.410Z,94.98
2024-02-15T05:52:20.545Z,94.89
2024-02-15T05:53:21.246Z,94.6
2024-02-15T05:54:22.435Z,94.42
2024-02-15T05:55:23.326Z,94.42
2024-02-15T05:56:24.375Z,94.32
2024-02-15T05:57:25.573Z,94.42
2024-02-15T05:58:26.220Z,94.13
2024-02-15T05:59:27.541Z,94.7
2024-02-15T06:00:29.325Z,94.79
2024-02-15T06:01:28.650Z,94.89
2024-02-15T06:02:28.732Z,94.32
2024-02-15T06:03:29.491Z,94.13
2024-02-15T06:04:30.567Z,94.42
2024-02-15T06:05:31.243Z,94.32
2024-02-15T06:06:31.805Z,94.42
2024-02-15T06:07:32.369Z,94.6
2024-02-15T06:08:32.835Z,94.89
2024-02-15T06:09:33.652Z,95.27
2024-02-15T06:10:33.596Z,95.17
2024-02-15T06:11:34.596Z,95.27
2024-02-15T06:12:34.690Z,95.08
2024-02-15T06:13:35.382Z,95.46
2024-02-15T06:14:36.140Z,95.27
2024-02-15T06:15:36.983Z,94.98
2024-02-15T06:16:37.564Z,95.36
2024-02-15T06:17:38.387Z,95.46
2024-02-15T06:18:39.787Z,95.36
2024-02-15T06:19:39.316Z,95.75
2024-02-15T06:20:40.669Z,95.94
2024-02-15T06:21:41.246Z,96.03
2024-02-15T06:22:42.308Z,95.55
2024-02-15T06:23:42.588Z,95.75
2024-02-15T06:24:43.508Z,95.75
2024-02-15T06:25:43.630Z,95.65
2024-02-15T06:26:45.737Z,95.55
2024-02-15T06:27:44.729Z,95.46
2024-02-15T06:28:45.701Z,95.46
2024-02-15T06:29:46.275Z,95.75
2024-02-15T06:30:46.991Z,95.75
2024-02-15T06:31:47.886Z,95.55
2024-02-15T06:32:49.065Z,95.46
2024-02-15T06:33:50.211Z,95.55
2024-02-15T06:34:50.493Z,95.55
2024-02-15T06:35:50.540Z,95.89
2024-02-15T06:36:51.339Z,95.6
2024-02-15T06:37:51.243Z,95.41
2024-02-15T06:38:51.700Z,95.89
2024-02-15T06:39:52.791Z,96.17
2024-02-15T06:40:53.062Z,95.89
2024-02-15T06:41:53.927Z,96.17
2024-02-15T06:42:54.152Z,95.98
2024-02-15T06:43:54.905Z,95.6
2024-02-15T06:44:55.903Z,95.65
2024-02-15T06:45:55.978Z,95.36
2024-02-15T06:46:56.872Z,95.36
2024-02-15T06:47:57.764Z,95.08
2024-02-15T06:48:58.529Z,95.55
2024-02-15T06:49:58.747Z,95.08
2024-02-15T06:50:59.668Z,95.27
2024-02-15T06:52:00.332Z,95.17
2024-02-15T06:53:01.012Z,95.17
2024-02-15T06:54:01.671Z,94.7
2024-02-15T06:55:02.422Z,94.7
2024-02-15T06:56:02.325Z,94.89
2024-02-15T06:57:02.764Z,94.03
2024-02-15T06:58:03.558Z,93.08
2024-02-15T06:59:03.812Z,92.42
2024-02-15T07:00:04.986Z,92.18
2024-02-15T07:01:05.941Z,91.89
2024-02-15T07:02:06.741Z,91.04
2024-02-15T07:03:07.511Z,90.66
2024-02-15T07:04:07.304Z,91.42
2024-02-15T07:05:08.417Z,91.13
2024-02-15T07:06:09.742Z,90.75
2024-02-15T07:07:09.727Z,90.66
2024-02-15T07:08:10.075Z,91.42
2024-02-15T07:09:10.852Z,91.52
2024-02-15T07:10:10.927Z,91.52
2024-02-15T07:11:11.292Z,91.71
2024-02-15T07:12:11.184Z,91.61
2024-02-15T07:13:12.339Z,91.13
2024-02-15T07:14:13.047Z,90.56
2024-02-15T07:15:13.892Z,90.28
2024-02-15T07:16:14.650Z,89.8
2024-02-15T07:17:15.394Z,89.9
2024-02-15T07:18:16.820Z,89.61
2024-02-15T07:19:17.564Z,89.42
2024-02-15T07:20:17.110Z,88.85
2024-02-15T07:21:18.260Z,89.14
2024-02-15T07:22:18.730Z,89.85
2024-02-15T07:23:19.599Z,89.23
2024-02-15T07:24:20.233Z,89.28
2024-02-15T07:25:20.431Z,89.18
2024-02-15T07:26:20.956Z,88.52
2024-02-15T07:27:21.460Z,87.76
2024-02-15T07:28:22.233Z,87.13
2024-02-15T07:29:22.748Z,86.38
2024-02-15T07:30:25.826Z,85.8
2024-02-15T07:31:23.578Z,85.42
2024-02-15T07:32:24.578Z,84.61
2024-02-15T07:33:25.698Z,84.23
2024-02-15T07:34:25.967Z,82.56
2024-02-15T07:35:25.822Z,81.79
2024-02-15T07:36:26.329Z,80.31
2024-02-15T07:37:26.988Z,79.27
2024-02-15T07:38:27.934Z,78.35
2024-02-15T07:39:28.823Z,77.97
2024-02-15T07:40:28.999Z,78.25
2024-02-15T07:41:29.418Z,78.06
2024-02-15T07:42:29.694Z,77.69
2024-02-15T07:43:30.256Z,77.4
2024-02-15T07:44:30.856Z,76.73
2024-02-15T07:45:31.162Z,76.29
2024-02-15T07:46:31.276Z,74.96
2024-02-15T07:47:34.115Z,74.13
2024-02-15T07:48:32.846Z,72.64
2024-02-15T07:49:33.715Z,71.21
2024-02-15T07:50:33.897Z,71.31
2024-02-15T07:51:34.084Z,69.91
2024-02-15T07:52:34.791Z,69.34
2024-02-15T07:53:35.550Z,68.61
2024-02-15T07:54:36.801Z,68.51
2024-02-15T07:55:37.953Z,67.65
2024-02-15T07:56:38.309Z,67.97
2024-02-15T07:57:38.442Z,67.59
2024-02-15T07:58:38.470Z,67.4
2024-02-15T07:59:39.073Z,66.92
2024-02-15T08:00:39.725Z,66.83
2024-02-15T08:01:40.075Z,66.16
2024-02-15T08:02:40.751Z,65.87
2024-02-15T08:03:41.161Z,65.58
2024-02-15T08:04:41.709Z,65.81
2024-02-15T08:05:41.448Z,65.77
2024-02-15T08:06:42.527Z,65.68
2024-02-15T08:07:43.315Z,66.06
2024-02-15T08:08:44.037Z,66.16
2024-02-15T08:09:47.230Z,65.14
2024-02-15T08:10:45.529Z,64.66
2024-02-15T08:11:45.714Z,64.47
2024-02-15T08:12:45.768Z,63.99
2024-02-15T08:13:46.827Z,63.99
2024-02-15T08:14:47.009Z,64.47
2024-02-15T08:15:46.934Z,63.7
2024-02-15T08:16:47.661Z,63.64
2024-02-15T08:17:47.989Z,61.94
2024-02-15T08:18:48.828Z,61.02
2024-02-15T08:19:52.444Z,60.09
2024-02-15T08:20:49.669Z,58.49
2024-02-15T08:21:50.585Z,57.37
2024-02-15T08:22:51.547Z,56.73
2024-02-15T08:23:52.190Z,56.34
2024-02-15T08:24:52.532Z,55.57
2024-02-15T08:25:53.568Z,55.12
2024-02-15T08:26:54.519Z,54.74
2024-02-15T08:27:55.118Z,55
2024-02-15T08:28:55.933Z,54.9
2024-02-15T08:29:56.164Z,55.38
2024-02-15T08:30:56.247Z,56.22
2024-02-15T08:31:56.967Z,56.67
2024-02-15T08:32:57.682Z,56.93
2024-02-15T08:33:58.288Z,57.98
2024-02-15T08:34:58.618Z,57.7
2024-02-15T08:35:59.444Z,57.7
2024-02-15T08:36:59.960Z,57.7
2024-02-15T08:38:00.729Z,58.17
2024-02-15T08:39:01.641Z,58.62
2024-02-15T08:41:02.520Z,60.03
2024-02-15T08:42:02.418Z,61.18
2024-02-15T08:43:02.805Z,61.15
2024-02-15T08:44:03.565Z,61.72
2024-02-15T08:45:04.541Z,61.91
2024-02-15T08:46:04.513Z,61.44
2024-02-15T08:47:05.303Z,62.11
2024-02-15T08:48:06.650Z,61.91
2024-02-15T08:49:06.988Z,61.91
2024-02-15T08:50:07.204Z,61.82
2024-02-15T08:51:08.228Z,62.71
2024-02-15T08:52:09.100Z,62.23
2024-02-15T08:53:09.340Z,62.43
2024-02-15T08:54:10.399Z,61.94
2024-02-15T08:55:10.342Z,60.99
2024-02-15T08:56:10.779Z,61.08
2024-02-15T08:57:11.722Z,61.76
2024-02-15T08:58:12.014Z,62.52
2024-02-15T08:59:12.772Z,62.49
2024-02-15T09:00:13.647Z,63.93
2024-02-15T09:01:14.217Z,63.99
2024-02-15T09:02:14.588Z,63.89
2024-02-15T09:03:15.782Z,63.32
2024-02-15T09:04:16.212Z,63.99
2024-02-15T09:05:16.691Z,63.99
2024-02-15T09:06:17.109Z,63.89
2024-02-15T09:07:17.635Z,63.8
2024-02-15T09:08:18.055Z,64.47
2024-02-15T09:09:18.889Z,64.85
2024-02-15T09:10:18.937Z,65.61
2024-02-15T09:11:20.247Z,64.95
2024-02-15T09:12:20.625Z,65.81
2024-02-15T09:13:21.066Z,66.86
2024-02-15T09:14:22.035Z,66.96
2024-02-15T09:15:22.950Z,67.49
2024-02-15T09:16:23.449Z,67.3
2024-02-15T09:17:24.286Z,67.3
2024-02-15T09:18:25.410Z,68.64
2024-02-15T09:19:26.258Z,69.18
2024-02-15T09:20:27.145Z,68.23
2024-02-15T09:21:27.829Z,67.49
2024-02-15T09:22:28.463Z,67.3
2024-02-15T09:23:28.585Z,65.55
2024-02-15T09:24:28.996Z,64.15
2024-02-15T09:25:29.342Z,62.26
2024-02-15T09:26:30.347Z,60.86
2024-02-15T09:27:30.604Z,60.41
2024-02-15T09:28:30.870Z,58.97
2024-02-15T09:29:30.889Z,58.11
2024-02-15T09:30:32.020Z,58.71
2024-02-15T09:31:33.040Z,57.97
2024-02-15T09:32:34.109Z,55.32
2024-02-15T09:33:34.578Z,54.19
2024-02-15T09:34:34.985Z,52.89
2024-02-15T09:35:35.005Z,52.34
2024-02-15T09:36:35.493Z,52.25
2024-02-15T09:37:35.663Z,50.93
2024-02-15T09:38:35.863Z,49.32
2024-02-15T09:39:36.538Z,49.34
2024-02-15T09:40:37.669Z,49.05
2024-02-15T09:41:38.709Z,49.73
2024-02-15T09:42:38.598Z,48.66
2024-02-15T09:43:39.029Z,47.72
2024-02-15T09:44:40.004Z,47.36
2024-02-15T09:45:40.235Z,47.36
2024-02-15T09:46:41.004Z,48.52
2024-02-15T09:47:41.857Z,49.17
2024-02-15T09:48:42.748Z,49.53
2024-02-15T09:49:43.149Z,49.53
2024-02-15T09:50:43.695Z,49.75
2024-02-15T09:51:44.154Z,50.04
2024-02-15T09:52:45.084Z,49.07
2024-02-15T09:53:46.222Z,48.01
2024-02-15T09:54:46.634Z,50.01
2024-02-15T09:55:47.580Z,50.11
2024-02-15T09:56:48.767Z,50.49
2024-02-15T09:57:49.075Z,48.86
2024-02-15T09:58:49.075Z,48.08
2024-02-15T09:59:50.046Z,47.72
2024-02-15T10:00:50.880Z,47.45
2024-02-15T10:01:50.995Z,46.78
2024-02-15T10:02:51.636Z,46.69
2024-02-15T10:03:52.084Z,46.81
2024-02-15T10:04:57.016Z,46.23
2024-02-15T10:05:53.575Z,46.61
2024-02-15T10:06:53.922Z,45.57
2024-02-15T10:07:54.099Z,46.15
2024-02-15T10:08:54.896Z,47.6
2024-02-15T10:09:58.127Z,47.02
2024-02-15T10:10:56.152Z,47.02
2024-02-15T10:11:56.516Z,46.64
2024-02-15T10:12:57.184Z,46.34
2024-02-15T10:13:57.590Z,47
2024-02-15T10:14:58.720Z,47.48
2024-02-15T10:15:59.041Z,47.75
2024-02-15T10:16:59.251Z,48.61
2024-02-15T10:17:59.523Z,48.61
2024-02-15T10:19:00.302Z,47.85
2024-02-15T10:20:01.313Z,47.72
2024-02-15T10:21:02.091Z,48.97
2024-02-15T10:22:03.177Z,48.69
2024-02-15T10:23:03.154Z,48.79
2024-02-15T10:24:04.068Z,48.38
2024-02-15T10:25:04.706Z,48.47
2024-02-15T10:26:05.507Z,49.63
2024-02-15T10:27:06.618Z,50.13
2024-02-15T10:28:06.870Z,50.9
2024-02-15T10:29:07.070Z,49.87
2024-02-15T10:30:07.414Z,49.68
2024-02-15T10:31:07.582Z,48.64
2024-02-15T10:32:08.459Z,47.89
2024-02-15T10:33:09.761Z,47.02
2024-02-15T10:34:09.699Z,46.75
2024-02-15T10:35:10.556Z,45.59
2024-02-15T10:36:10.923Z,46.78
2024-02-15T10:37:11.314Z,46.78
2024-02-15T10:38:12.378Z,47.58
2024-02-15T10:39:12.580Z,46.12
2024-02-15T10:40:13.442Z,46.68
2024-02-15T10:41:13.617Z,47.33
2024-02-15T10:42:14.626Z,48.69
2024-02-15T10:43:15.283Z,48.79
2024-02-15T10:44:15.895Z,46.75
2024-02-15T10:45:18.983Z,45.31
2024-02-15T10:46:17.783Z,45.69
2024-02-15T10:47:18.128Z,46.08
2024-02-15T10:48:18.794Z,46.83
2024-02-15T10:49:19.590Z,46.54
2024-02-15T10:50:19.608Z,48.66
2024-02-15T10:51:19.877Z,47.31
2024-02-15T10:52:20.245Z,46.44
2024-02-15T10:53:20.441Z,47.02
2024-02-15T10:54:21.001Z,48.37
2024-02-15T10:55:21.124Z,47.7
2024-02-15T10:56:21.951Z,47.8
2024-02-15T10:57:23.080Z,48.66
2024-02-15T10:58:24.036Z,47.89
2024-02-15T10:59:24.035Z,46.92
2024-02-15T11:00:25.063Z,47.8
2024-02-15T11:01:25.467Z,48.08
2024-02-15T11:02:25.818Z,47.24
2024-02-15T11:03:26.540Z,46.66
2024-02-15T11:04:26.601Z,46.47
2024-02-15T11:05:27.307Z,47.05
2024-02-15T11:06:28.334Z,47.45
2024-02-15T11:07:34.126Z,48.9
2024-02-15T11:08:29.439Z,48.97
2024-02-15T11:09:30.527Z,48.59
2024-02-15T11:10:31.225Z,48.01
2024-02-15T11:11:32.048Z,47.53
2024-02-15T11:12:33.208Z,46.85
2024-02-15T11:13:34.115Z,47.22
2024-02-15T11:14:34.243Z,48.06
2024-02-15T11:15:35.015Z,49.1
2024-02-15T11:16:35.754Z,49.94
2024-02-15T11:17:36.436Z,50.52
2024-02-15T11:18:36.968Z,51.1
2024-02-15T11:19:37.442Z,52.64
2024-02-15T11:20:38.046Z,52.13
2024-02-15T11:21:38.199Z,51.26
2024-02-15T11:22:38.958Z,51.26
2024-02-15T11:23:42.967Z,51.56
2024-02-15T11:24:40.044Z,52.2
2024-02-15T11:25:40.941Z,51.62
2024-02-15T11:26:41.555Z,51.98
2024-02-15T11:27:42.559Z,53.23
2024-02-15T11:28:43.537Z,54.1
2024-02-15T11:29:44.622Z,54.36
2024-02-15T11:30:44.713Z,54.17
2024-02-15T11:31:45.581Z,53.59
2024-02-15T11:32:47.091Z,53.98
2024-02-15T11:33:46.952Z,54.14
2024-02-15T11:34:47.610Z,54.14
2024-02-15T11:35:48.161Z,55.18
2024-02-15T11:36:48.416Z,54.89
2024-02-15T11:37:49.384Z,55.18
2024-02-15T11:38:50.732Z,56.4
2024-02-15T11:39:50.632Z,56.11
2024-02-15T11:40:51.812Z,56.3
2024-02-15T11:41:52.449Z,56.46
2024-02-15T11:42:53.402Z,56.66
2024-02-15T11:43:54.314Z,57.52
2024-02-15T11:44:55.619Z,58.03
2024-02-15T11:45:56.490Z,56.21
2024-02-15T11:46:56.544Z,56.49
2024-02-15T11:47:57.790Z,56.98
2024-02-15T11:48:57.954Z,58.45
2024-02-15T11:49:58.186Z,58.45
2024-02-15T11:51:00.231Z,57.77
2024-02-15T11:51:58.633Z,56.71
2024-02-15T11:52:59.709Z,55.37
2024-02-15T11:53:59.988Z,54.89
2024-02-15T11:55:00.000Z,55.37
2024-02-15T11:56:00.782Z,56.23
2024-02-15T11:57:01.794Z,55.56
2024-02-15T11:58:02.048Z,55.37
2024-02-15T11:59:02.032Z,55.66
2024-02-15T12:00:03.092Z,55.56
2024-02-15T12:01:03.190Z,56.33
2024-02-15T12:02:03.852Z,56.33
2024-02-15T12:03:04.435Z,57.97
2024-02-15T12:04:12.637Z,57.58
2024-02-15T12:05:05.811Z,56.36
2024-02-15T12:06:06.217Z,55.49
2024-02-15T12:07:07.192Z,56.84
2024-02-15T12:08:07.665Z,57.99
2024-02-15T12:09:08.474Z,55.49
2024-02-15T12:10:12.186Z,56.16
2024-02-15T12:11:10.141Z,55.68
2024-02-15T12:12:11.160Z,55.78
2024-02-15T12:13:12.120Z,56.36
2024-02-15T12:14:12.089Z,56.38
2024-02-15T12:15:13.155Z,55.81
2024-02-15T12:16:13.814Z,55.52
2024-02-15T12:17:14.799Z,55.43
2024-02-15T12:18:15.790Z,55.13
2024-02-15T12:19:16.451Z,54.72
2024-02-15T12:20:16.650Z,55.11
2024-02-15T12:21:17.465Z,55.2
2024-02-15T12:22:17.802Z,55.3
2024-02-15T12:23:18.573Z,57.68
2024-02-15T12:24:19.419Z,58.35
2024-02-15T12:25:19.462Z,56.91
2024-02-15T12:26:20.482Z,58.54
2024-02-15T12:27:20.401Z,58.47
2024-02-15T12:28:21.518Z,57.77
2024-02-15T12:29:21.675Z,57.9
2024-02-15T12:30:22.050Z,57.9
2024-02-15T12:31:22.819Z,59.34
2024-02-15T12:32:23.765Z,59.82
2024-02-15T12:33:25.024Z,60.49
2024-02-15T12:34:25.432Z,60.3
2024-02-15T12:35:27.193Z,59.24
2024-02-15T12:36:27.723Z,58.67
2024-02-15T12:37:28.530Z,58.28
2024-02-15T12:38:28.673Z,59.53
2024-02-15T12:39:29.728Z,59.05
2024-02-15T12:40:30.741Z,58.76
2024-02-15T12:41:31.245Z,58.37
2024-02-15T12:42:32.168Z,57.9
2024-02-15T12:43:33.323Z,57.7
2024-02-15T12:44:33.281Z,56.84
2024-02-15T12:45:34.673Z,57.83
2024-02-15T12:46:34.737Z,56.96
2024-02-15T12:47:35.803Z,56.87
2024-02-15T12:48:36.180Z,56.48
2024-02-15T12:49:37.210Z,56.65
2024-02-15T12:50:37.054Z,57.22
2024-02-15T12:51:40.044Z,58.47
2024-02-15T12:53:38.709Z,58.28
2024-02-15T12:54:38.829Z,57.6
2024-02-15T12:55:39.760Z,57.8
2024-02-15T12:56:40.762Z,57.58
2024-02-15T12:57:41.328Z,58.47
2024-02-15T12:58:42.091Z,57.7
2024-02-15T12:59:41.923Z,58.28
2024-02-15T13:00:43.164Z,60.3
2024-02-15T13:01:43.405Z,61.26
2024-02-15T13:02:46.648Z,61.43
2024-02-15T13:03:45.331Z,61.43
2024-02-15T13:04:45.569Z,60.37
2024-02-15T13:05:47.046Z,61.23